createdAt,value
2023-05-25T00:01:03.093Z,11.80
2023-05-25T00:05:08.297Z,10.82
2023-05-25T00:09:10.271Z,15.82
2023-05-25T00:13:12.254Z,9.75
2023-05-25T00:17:14.493Z,10.40
2023-05-25T00:21:16.534Z,8.70
2023-05-25T00:25:20.880Z,10.60
2023-05-25T00:29:23.144Z,12.27
2023-05-25T00:33:25.289Z,9.67
2023-05-25T00:37:28.598Z,8.37
2023-05-25T00:41:31.508Z,10.67
2023-05-25T00:45:33.474Z,10.90
2023-05-25T00:49:36.965Z,11.27
2023-05-25T00:53:38.982Z,11.37
2023-05-25T00:57:46.041Z,14.33
2023-05-25T01:01:50.155Z,15.67
2023-05-25T01:05:55.229Z,12.20
2023-05-25T01:10:00.277Z,14.18
2023-05-25T01:14:03.339Z,12.13
2023-05-25T01:18:05.787Z,13.20
2023-05-25T01:22:07.674Z,9.67
2023-05-25T01:26:15.679Z,13.47
2023-05-25T01:30:19.184Z,9.23
2023-05-25T01:34:21.966Z,11.23
2023-05-25T01:38:24.133Z,11.23
2023-05-25T01:42:26.172Z,13.90
2023-05-25T01:46:38.014Z,12.40
2023-05-25T01:50:43.055Z,12.57
2023-05-25T01:54:53.322Z,9.50
2023-05-25T01:58:57.865Z,11.63
2023-05-25T02:03:03.975Z,12.18
2023-05-25T02:07:06.397Z,10.97
2023-05-25T02:11:08.429Z,10.30
2023-05-25T02:15:11.794Z,11.95
2023-05-25T02:19:15.020Z,10.40
2023-05-25T02:23:18.955Z,11.73
2023-05-25T02:27:20.982Z,14.40
2023-05-25T02:31:23.465Z,15.83
2023-05-25T02:35:25.806Z,14.13
2023-05-25T02:39:28.556Z,11.32
2023-05-25T02:43:32.664Z,9.83
2023-05-25T02:47:34.638Z,14.03
2023-05-25T02:51:37.208Z,14.57
2023-05-25T02:55:40.526Z,12.10
2023-05-25T02:59:45.338Z,13.23
2023-05-25T03:03:52.322Z,12.43
2023-05-25T03:07:55.684Z,12.07
2023-05-25T03:11:57.770Z,10.87
2023-05-25T03:15:59.811Z,10.27
2023-05-25T03:20:01.865Z,13.15
2023-05-25T03:24:04.354Z,13.30
2023-05-25T03:28:07.120Z,14.32
2023-05-25T03:32:09.130Z,11.93
2023-05-25T03:36:12.377Z,13.40
2023-05-25T03:40:14.568Z,13.00
2023-05-25T03:44:16.769Z,15.60
2023-05-25T03:48:18.991Z,14.45
2023-05-25T03:52:21.837Z,10.15
2023-05-25T03:56:23.809Z,10.30
2023-05-25T04:00:25.682Z,12.45
2023-05-25T04:04:28.302Z,15.57
2023-05-25T04:08:30.438Z,9.77
2023-05-25T04:12:33.595Z,13.88
2023-05-25T04:16:35.743Z,16.67
2023-05-25T04:20:38.421Z,12.00
2023-05-25T04:24:41.919Z,13.63
2023-05-25T04:28:44.214Z,12.23
2023-05-25T04:32:57.633Z,16.23
2023-05-25T04:37:27.436Z,14.17
2023-05-25T04:41:31.265Z,13.05
2023-05-25T04:45:37.226Z,12.82
2023-05-25T04:49:39.937Z,14.75
2023-05-25T04:53:43.377Z,14.23
2023-05-25T04:57:45.241Z,13.73
2023-05-25T05:01:47.332Z,12.75
2023-05-25T05:05:52.009Z,14.23
2023-05-25T05:09:59.601Z,15.43
2023-05-25T05:14:02.458Z,15.23
2023-05-25T05:18:06.227Z,15.77
2023-05-25T05:22:09.760Z,15.60
2023-05-25T05:26:15.162Z,16.15
2023-05-25T05:30:17.404Z,18.20
2023-05-25T05:34:20.548Z,23.55
2023-05-25T05:38:22.668Z,16.75
2023-05-25T05:42:24.923Z,16.77
2023-05-25T05:46:27.055Z,14.13
2023-05-25T05:50:29.095Z,17.45
2023-05-25T05:54:32.037Z,17.48
2023-05-25T05:58:39.125Z,16.05
2023-05-25T06:02:41.976Z,13.73
2023-05-25T06:06:47.739Z,13.25
2023-05-25T06:10:49.717Z,17.35
2023-05-25T06:14:52.188Z,13.27
2023-05-25T06:18:54.387Z,12.27
2023-05-25T06:22:56.440Z,16.70
2023-05-25T06:26:58.333Z,12.65
2023-05-25T06:31:00.875Z,12.23
2023-05-25T06:35:02.971Z,18.13
2023-05-25T06:39:05.107Z,16.13
2023-05-25T06:43:07.610Z,20.48
2023-05-25T06:47:18.031Z,21.92
2023-05-25T06:51:20.085Z,16.08
2023-05-25T06:55:22.076Z,14.23
2023-05-25T06:59:23.922Z,15.93
2023-05-25T07:03:26.087Z,13.98
2023-05-25T07:07:28.098Z,14.93
2023-05-25T07:11:29.968Z,14.85
2023-05-25T07:15:31.778Z,16.13
2023-05-25T07:19:33.759Z,15.27
2023-05-25T07:23:36.918Z,15.20
2023-05-25T07:27:40.003Z,14.77
2023-05-25T07:31:41.964Z,13.07
2023-05-25T07:35:44.033Z,14.23
2023-05-25T07:39:46.325Z,14.05
2023-05-25T07:43:48.275Z,14.27
2023-05-25T07:47:50.538Z,18.00
2023-05-25T07:51:52.514Z,12.63
2023-05-25T07:55:54.337Z,13.98
2023-05-25T07:59:56.397Z,16.08
2023-05-25T08:03:58.725Z,19.67
2023-05-25T08:08:01.005Z,15.60
2023-05-25T08:12:23.962Z,15.85
2023-05-25T08:16:24.893Z,13.68
2023-05-25T08:20:26.932Z,13.05
2023-05-25T08:24:28.956Z,18.25
2023-05-25T08:28:31.108Z,13.20
2023-05-25T08:32:33.378Z,14.68
2023-05-25T08:36:36.204Z,15.68
2023-05-25T08:40:43.306Z,13.75
2023-05-25T08:44:45.453Z,14.23
2023-05-25T08:48:49.237Z,17.55
2023-05-25T08:52:53.334Z,14.93
2023-05-25T08:57:29.607Z,12.73
2023-05-25T09:01:36.600Z,12.75
2023-05-25T09:05:38.793Z,15.60
2023-05-25T09:09:41.496Z,12.70
2023-05-25T09:13:43.611Z,14.77
2023-05-25T09:17:45.707Z,13.60
2023-05-25T09:21:47.648Z,17.15
2023-05-25T09:25:51.616Z,12.25
2023-05-25T09:29:53.749Z,14.38
2023-05-25T09:33:59.982Z,13.60
2023-05-25T09:38:02.130Z,13.75
2023-05-25T09:42:04.782Z,13.90
2023-05-25T09:46:06.880Z,18.48
2023-05-25T09:50:09.373Z,12.73
2023-05-25T09:54:11.951Z,14.32
2023-05-25T09:58:13.918Z,15.15
2023-05-25T10:02:16.006Z,14.77
2023-05-25T10:06:18.440Z,15.75
2023-05-25T10:10:20.581Z,15.25
2023-05-25T10:14:29.376Z,16.30
2023-05-25T10:18:36.063Z,13.15
2023-05-25T10:22:58.963Z,17.50
2023-05-25T10:27:14.737Z,13.57
2023-05-25T10:31:28.314Z,13.43
2023-05-25T10:35:32.842Z,12.07
2023-05-25T10:39:43.451Z,14.52
2023-05-25T10:43:46.276Z,13.13
2023-05-25T10:47:48.757Z,16.60
2023-05-25T10:51:58.399Z,17.02
2023-05-25T10:56:00.304Z,13.75
2023-05-25T11:00:06.469Z,12.43
2023-05-25T11:04:11.725Z,14.07
2023-05-25T11:08:16.501Z,16.17
2023-05-25T11:12:20.991Z,13.18
2023-05-25T11:16:34.523Z,12.35
2023-05-25T11:20:38.060Z,13.65
2023-05-25T11:24:40.108Z,14.07
2023-05-25T11:28:48.593Z,12.98
2023-05-25T11:32:51.018Z,13.63
2023-05-25T11:37:03.883Z,15.38
2023-05-25T11:41:05.932Z,14.43
2023-05-25T11:45:12.096Z,13.68
2023-05-25T11:49:14.186Z,11.68
2023-05-25T11:53:16.312Z,16.58
2023-05-25T11:57:26.443Z,14.50
2023-05-25T12:01:31.869Z,13.38
2023-05-25T12:05:40.241Z,10.07
2023-05-25T12:09:42.340Z,11.93
2023-05-25T12:13:44.744Z,10.20
2023-05-25T12:17:47.771Z,12.57
2023-05-25T12:21:51.450Z,9.23
2023-05-25T12:26:13.945Z,12.48
2023-05-25T12:30:16.268Z,9.57
2023-05-25T12:34:19.571Z,10.85
2023-05-25T12:38:22.091Z,9.25
2023-05-25T12:42:27.507Z,10.38
2023-05-25T12:46:29.814Z,9.07
2023-05-25T12:50:32.618Z,10.55
2023-05-25T12:54:45.788Z,11.60
2023-05-25T12:58:47.748Z,9.35
2023-05-25T13:02:51.018Z,9.82
2023-05-25T13:06:53.402Z,12.68
2023-05-25T13:10:56.259Z,10.88
2023-05-25T13:14:58.206Z,10.23
2023-05-25T13:19:01.010Z,9.70
2023-05-25T13:23:03.362Z,6.95
2023-05-25T13:27:05.575Z,10.68
2023-05-25T13:31:07.560Z,9.77
2023-05-25T13:35:17.463Z,8.93
2023-05-25T13:39:19.838Z,6.82
2023-05-25T13:43:22.004Z,5.93
2023-05-25T13:47:24.065Z,10.23
2023-05-25T13:51:26.794Z,9.93
2023-05-25T13:55:28.721Z,9.60
2023-05-25T13:59:30.629Z,9.77
2023-05-25T14:03:33.209Z,9.25
2023-05-25T14:07:35.886Z,8.23
2023-05-25T14:11:38.009Z,7.57
2023-05-25T14:15:40.000Z,14.02
2023-05-25T14:19:42.050Z,7.70
2023-05-25T14:23:44.374Z,6.35
2023-05-25T14:27:46.544Z,8.20
2023-05-25T14:31:48.682Z,13.05
2023-05-25T14:35:50.895Z,11.63
2023-05-25T14:39:52.834Z,9.80
2023-05-25T14:43:54.801Z,9.82
2023-05-25T14:48:11.788Z,9.93
2023-05-25T14:52:17.836Z,8.95
2023-05-25T14:56:21.499Z,7.95
2023-05-25T15:00:23.441Z,11.68
2023-05-25T15:04:27.157Z,12.13
2023-05-25T15:08:29.384Z,8.60
2023-05-25T15:12:31.425Z,9.85
2023-05-25T15:16:33.554Z,11.68
2023-05-25T15:20:35.916Z,7.72
2023-05-25T15:24:37.955Z,9.93
2023-05-25T15:28:40.034Z,10.50
2023-05-25T15:32:42.300Z,8.02
2023-05-25T15:36:44.204Z,9.40
2023-05-25T15:40:46.150Z,9.27
2023-05-25T15:44:48.184Z,8.55
2023-05-25T15:48:50.215Z,11.88
2023-05-25T15:52:52.341Z,12.50
2023-05-25T15:56:54.531Z,11.50
2023-05-25T16:00:56.366Z,9.20
2023-05-25T16:04:58.552Z,9.40
2023-05-25T16:09:00.998Z,11.05
2023-05-25T16:13:02.951Z,9.82
2023-05-25T16:17:04.979Z,6.88
2023-05-25T16:21:06.846Z,8.32
2023-05-25T16:25:09.191Z,10.70
2023-05-25T16:29:11.201Z,6.93
2023-05-25T16:33:13.163Z,7.40
2023-05-25T16:37:15.004Z,8.13
2023-05-25T16:41:17.051Z,9.38
2023-05-25T16:45:20.958Z,10.55
2023-05-25T16:49:23.118Z,11.52
2023-05-25T16:53:25.820Z,8.07
2023-05-25T16:57:28.033Z,10.50
2023-05-25T17:01:29.967Z,9.27
2023-05-25T17:05:32.117Z,8.00
2023-05-25T17:09:34.065Z,5.40
2023-05-25T17:13:36.018Z,7.68
2023-05-25T17:17:38.020Z,9.48
2023-05-25T17:21:40.067Z,6.90
2023-05-25T17:25:42.554Z,6.55
2023-05-25T17:29:44.809Z,8.88
2023-05-25T17:33:46.873Z,9.00
2023-05-25T17:37:48.770Z,7.07
2023-05-25T17:41:50.855Z,5.45
2023-05-25T17:45:53.190Z,6.97
2023-05-25T17:49:55.138Z,8.75
2023-05-25T17:53:57.233Z,8.93
2023-05-25T17:57:59.339Z,8.13
2023-05-25T18:02:01.471Z,9.13
2023-05-25T18:06:03.660Z,12.20
2023-05-25T18:10:05.975Z,8.32
2023-05-25T18:14:08.031Z,11.95
2023-05-25T18:18:10.068Z,8.45
2023-05-25T18:22:12.272Z,6.65
2023-05-25T18:26:14.270Z,9.35
2023-05-25T18:30:16.438Z,8.02
2023-05-25T18:34:18.466Z,6.07
2023-05-25T18:38:20.313Z,10.40
2023-05-25T18:42:22.230Z,6.93
2023-05-25T18:46:25.390Z,8.25
2023-05-25T18:50:27.381Z,12.25
2023-05-25T18:54:29.826Z,5.65
2023-05-25T18:58:31.911Z,11.73
2023-05-25T19:02:36.145Z,8.93
2023-05-25T19:06:38.133Z,9.75
2023-05-25T19:10:41.724Z,8.05
2023-05-25T19:14:44.820Z,10.70
2023-05-25T19:18:47.696Z,6.82
2023-05-25T19:22:49.632Z,10.68
2023-05-25T19:26:51.735Z,7.47
2023-05-25T19:30:53.789Z,11.23
2023-05-25T19:34:55.878Z,12.18
2023-05-25T19:38:57.688Z,11.35
2023-05-25T19:42:59.662Z,7.25
2023-05-25T19:47:01.575Z,9.15
2023-05-25T19:51:03.471Z,7.60
2023-05-25T19:55:06.278Z,7.68
2023-05-25T19:59:08.318Z,7.57
2023-05-25T20:03:10.864Z,10.18
2023-05-25T20:07:13.580Z,12.77
2023-05-25T20:11:15.704Z,10.63
2023-05-25T20:15:17.841Z,12.00
2023-05-25T20:19:22.298Z,11.50
2023-05-25T20:23:24.383Z,11.32
2023-05-25T20:27:27.072Z,13.23
2023-05-25T20:31:29.128Z,9.30
2023-05-25T20:35:31.131Z,7.97
2023-05-25T20:39:33.134Z,12.57
2023-05-25T20:43:35.132Z,11.30
2023-05-25T20:47:39.304Z,9.85
2023-05-25T20:51:44.393Z,11.48
2023-05-25T20:55:47.370Z,12.65
2023-05-25T20:59:49.384Z,10.32
2023-05-25T21:03:51.695Z,11.35
2023-05-25T21:07:53.664Z,11.02
2023-05-25T21:11:55.947Z,11.65
2023-05-25T21:15:59.555Z,12.52
2023-05-25T21:20:01.404Z,13.93
2023-05-25T21:24:03.885Z,18.83
2023-05-25T21:28:06.903Z,16.55
2023-05-25T21:32:08.942Z,11.75
2023-05-25T21:36:11.281Z,14.85
2023-05-25T21:40:13.259Z,12.88
2023-05-25T21:44:15.576Z,12.15
2023-05-25T21:48:17.815Z,11.68
2023-05-25T21:52:19.844Z,10.15
2023-05-25T21:56:24.120Z,9.90
2023-05-25T22:00:26.258Z,13.25
2023-05-25T22:04:28.225Z,10.05
2023-05-25T22:08:30.338Z,11.95
2023-05-25T22:12:32.232Z,13.98
2023-05-25T22:16:34.255Z,14.13
2023-05-25T22:20:38.852Z,15.45
2023-05-25T22:24:40.897Z,13.05
2023-05-25T22:28:42.893Z,12.20
2023-05-25T22:32:45.096Z,14.80
2023-05-25T22:36:46.994Z,13.73
2023-05-25T22:40:49.094Z,10.70
2023-05-25T22:44:51.344Z,12.95
2023-05-25T22:48:53.425Z,12.68
2023-05-25T22:52:55.656Z,16.42
2023-05-25T22:56:57.741Z,13.63
2023-05-25T23:00:59.548Z,11.68
2023-05-25T23:05:01.438Z,13.30
2023-05-25T23:09:03.524Z,11.60
2023-05-25T23:13:06.316Z,13.82
2023-05-25T23:17:08.409Z,12.52
2023-05-25T23:21:10.785Z,13.43
2023-05-25T23:25:12.760Z,15.00
2023-05-25T23:29:14.733Z,12.60
2023-05-25T23:33:18.411Z,14.38
2023-05-25T23:37:20.769Z,11.55
2023-05-25T23:41:23.161Z,12.27
2023-05-25T23:45:25.132Z,10.65
2023-05-25T23:49:27.088Z,10.38
2023-05-25T23:53:28.980Z,11.65
2023-05-25T23:57:31.019Z,11.05
